sensor_id;sensor_type;location;lat;lon;timestamp;P1;durP1;ratioP1;P2;durP2;ratioP2
45392;SDS011;31129;44.810;10.334;2022-10-13T00:00:40;35.03;;;18.70;;
45392;SDS011;31129;44.810;10.334;2022-10-13T00:03:07;35.47;;;18.70;;
45392;SDS011;31129;44.810;10.334;2022-10-13T00:05:33;39.28;;;19.95;;
45392;SDS011;31129;44.810;10.334;2022-10-13T00:07:58;37.25;;;19.30;;
45392;SDS011;31129;44.810;10.334;2022-10-13T00:10:24;30.77;;;19.35;;
45392;SDS011;31129;44.810;10.334;2022-10-13T00:12:50;36.00;;;20.00;;
45392;SDS011;31129;44.810;10.334;2022-10-13T00:15:20;34.03;;;20.05;;
45392;SDS011;31129;44.810;10.334;2022-10-13T00:17:45;32.13;;;19.60;;
45392;SDS011;31129;44.810;10.334;2022-10-13T00:20:11;31.42;;;19.50;;
45392;SDS011;31129;44.810;10.334;2022-10-13T00:22:37;33.35;;;20.10;;
45392;SDS011;31129;44.810;10.334;2022-10-13T00:25:03;34.28;;;20.77;;
45392;SDS011;31129;44.810;10.334;2022-10-13T00:27:29;36.00;;;20.40;;
45392;SDS011;31129;44.810;10.334;2022-10-13T00:29:54;38.28;;;21.30;;
45392;SDS011;31129;44.810;10.334;2022-10-13T00:32:19;35.08;;;20.75;;
45392;SDS011;31129;44.810;10.334;2022-10-13T00:34:45;33.80;;;19.83;;
45392;SDS011;31129;44.810;10.334;2022-10-13T00:37:10;35.17;;;20.70;;
45392;SDS011;31129;44.810;10.334;2022-10-13T00:39:36;30.20;;;20.08;;
45392;SDS011;31129;44.810;10.334;2022-10-13T00:42:02;27.77;;;19.48;;
45392;SDS011;31129;44.810;10.334;2022-10-13T00:47:19;33.50;;;19.23;;
45392;SDS011;31129;44.810;10.334;2022-10-13T00:49:45;39.13;;;19.48;;
45392;SDS011;31129;44.810;10.334;2022-10-13T00:52:12;28.63;;;19.58;;
45392;SDS011;31129;44.810;10.334;2022-10-13T00:54:39;31.80;;;18.83;;
45392;SDS011;31129;44.810;10.334;2022-10-13T00:57:04;30.98;;;18.55;;
45392;SDS011;31129;44.810;10.334;2022-10-13T00:59:32;32.42;;;18.52;;
45392;SDS011;31129;44.810;10.334;2022-10-13T01:01:59;34.72;;;19.70;;
45392;SDS011;31129;44.810;10.334;2022-10-13T01:04:26;34.38;;;19.17;;
45392;SDS011;31129;44.810;10.334;2022-10-13T01:06:54;32.58;;;19.33;;
45392;SDS011;31129;44.810;10.334;2022-10-13T01:09:20;29.85;;;18.50;;
45392;SDS011;31129;44.810;10.334;2022-10-13T01:11:56;30.65;;;19.23;;
45392;SDS011;31129;44.810;10.334;2022-10-13T01:23:15;39.08;;;19.67;;
45392;SDS011;31129;44.810;10.334;2022-10-13T01:26:10;30.27;;;18.52;;
45392;SDS011;31129;44.810;10.334;2022-10-13T01:31:57;26.60;;;18.25;;
45392;SDS011;31129;44.810;10.334;2022-10-13T01:34:39;32.33;;;18.27;;
45392;SDS011;31129;44.810;10.334;2022-10-13T01:37:15;25.65;;;18.13;;
45392;SDS011;31129;44.810;10.334;2022-10-13T01:39:51;27.60;;;19.13;;
45392;SDS011;31129;44.810;10.334;2022-10-13T01:42:23;27.30;;;16.95;;
45392;SDS011;31129;44.810;10.334;2022-10-13T01:45:03;32.25;;;18.83;;
45392;SDS011;31129;44.810;10.334;2022-10-13T01:47:29;26.10;;;17.80;;
45392;SDS011;31129;44.810;10.334;2022-10-13T01:49:56;30.52;;;19.33;;
45392;SDS011;31129;44.810;10.334;2022-10-13T01:52:24;26.77;;;18.55;;
45392;SDS011;31129;44.810;10.334;2022-10-13T01:54:55;28.63;;;17.83;;
45392;SDS011;31129;44.810;10.334;2022-10-13T01:57:34;30.85;;;19.02;;
45392;SDS011;31129;44.810;10.334;2022-10-13T02:00:20;31.75;;;17.73;;
45392;SDS011;31129;44.810;10.334;2022-10-13T02:10:52;28.92;;;18.52;;
45392;SDS011;31129;44.810;10.334;2022-10-13T02:13:27;30.52;;;18.15;;
45392;SDS011;31129;44.810;10.334;2022-10-13T02:15:56;31.80;;;18.45;;
45392;SDS011;31129;44.810;10.334;2022-10-13T02:18:28;34.58;;;18.45;;
45392;SDS011;31129;44.810;10.334;2022-10-13T02:20:57;31.30;;;18.20;;
45392;SDS011;31129;44.810;10.334;2022-10-13T02:23:23;36.42;;;17.95;;
45392;SDS011;31129;44.810;10.334;2022-10-13T02:25:50;34.38;;;19.52;;
45392;SDS011;31129;44.810;10.334;2022-10-13T02:28:15;38.75;;;18.38;;
45392;SDS011;31129;44.810;10.334;2022-10-13T02:30:42;29.88;;;17.95;;
45392;SDS011;31129;44.810;10.334;2022-10-13T02:33:09;31.90;;;19.53;;
45392;SDS011;31129;44.810;10.334;2022-10-13T02:35:35;29.20;;;18.02;;
45392;SDS011;31129;44.810;10.334;2022-10-13T02:38:02;25.42;;;17.45;;
45392;SDS011;31129;44.810;10.334;2022-10-13T02:40:27;32.40;;;17.40;;
45392;SDS011;31129;44.810;10.334;2022-10-13T02:42:53;33.75;;;18.63;;
45392;SDS011;31129;44.810;10.334;2022-10-13T02:45:18;25.95;;;17.08;;
45392;SDS011;31129;44.810;10.334;2022-10-13T02:47:45;27.10;;;18.48;;
45392;SDS011;31129;44.810;10.334;2022-10-13T02:50:10;29.05;;;17.58;;
45392;SDS011;31129;44.810;10.334;2022-10-13T02:52:36;27.98;;;17.52;;
45392;SDS011;31129;44.810;10.334;2022-10-13T02:55:02;29.90;;;17.88;;
45392;SDS011;31129;44.810;10.334;2022-10-13T02:57:28;27.85;;;17.45;;
45392;SDS011;31129;44.810;10.334;2022-10-13T02:59:55;32.03;;;18.00;;
45392;SDS011;31129;44.810;10.334;2022-10-13T03:02:24;28.40;;;18.25;;
45392;SDS011;31129;44.810;10.334;2022-10-13T03:04:50;29.08;;;17.10;;
45392;SDS011;31129;44.810;10.334;2022-10-13T03:07:16;31.63;;;18.65;;
45392;SDS011;31129;44.810;10.334;2022-10-13T03:09:41;34.85;;;19.10;;
45392;SDS011;31129;44.810;10.334;2022-10-13T03:12:07;29.95;;;17.90;;
45392;SDS011;31129;44.810;10.334;2022-10-13T03:14:33;35.90;;;18.70;;
45392;SDS011;31129;44.810;10.334;2022-10-13T03:16:59;30.88;;;19.23;;
45392;SDS011;31129;44.810;10.334;2022-10-13T03:19:25;31.23;;;17.77;;
45392;SDS011;31129;44.810;10.334;2022-10-13T03:21:50;29.98;;;17.42;;
45392;SDS011;31129;44.810;10.334;2022-10-13T03:24:16;35.00;;;19.48;;
45392;SDS011;31129;44.810;10.334;2022-10-13T03:26:42;30.08;;;18.70;;
45392;SDS011;31129;44.810;10.334;2022-10-13T03:29:11;33.58;;;19.08;;
45392;SDS011;31129;44.810;10.334;2022-10-13T03:31:38;31.80;;;17.90;;
45392;SDS011;31129;44.810;10.334;2022-10-13T03:34:04;38.35;;;18.73;;
45392;SDS011;31129;44.810;10.334;2022-10-13T03:36:29;27.45;;;17.48;;
45392;SDS011;31129;44.810;10.334;2022-10-13T03:38:55;29.73;;;17.33;;
45392;SDS011;31129;44.810;10.334;2022-10-13T03:41:20;25.50;;;18.25;;
45392;SDS011;31129;44.810;10.334;2022-10-13T03:43:48;37.40;;;19.17;;
45392;SDS011;31129;44.810;10.334;2022-10-13T03:46:14;32.50;;;17.45;;
45392;SDS011;31129;44.810;10.334;2022-10-13T03:48:44;30.05;;;17.92;;
45392;SDS011;31129;44.810;10.334;2022-10-13T03:51:17;33.28;;;18.80;;
45392;SDS011;31129;44.810;10.334;2022-10-13T03:53:44;28.05;;;17.13;;
45392;SDS011;31129;44.810;10.334;2022-10-13T03:56:15;32.83;;;17.27;;
45392;SDS011;31129;44.810;10.334;2022-10-13T03:58:49;29.88;;;18.38;;
45392;SDS011;31129;44.810;10.334;2022-10-13T04:01:20;35.70;;;17.17;;
45392;SDS011;31129;44.810;10.334;2022-10-13T04:03:47;37.40;;;19.38;;
45392;SDS011;31129;44.810;10.334;2022-10-13T04:06:12;31.80;;;19.58;;
45392;SDS011;31129;44.810;10.334;2022-10-13T04:08:38;35.33;;;21.00;;
45392;SDS011;31129;44.810;10.334;2022-10-13T04:11:05;30.20;;;18.85;;
45392;SDS011;31129;44.810;10.334;2022-10-13T04:13:38;40.60;;;21.17;;
45392;SDS011;31129;44.810;10.334;2022-10-13T04:16:05;30.58;;;19.67;;
45392;SDS011;31129;44.810;10.334;2022-10-13T04:18:33;35.78;;;19.55;;
45392;SDS011;31129;44.810;10.334;2022-10-13T04:20:59;33.40;;;20.52;;
45392;SDS011;31129;44.810;10.334;2022-10-13T04:23:25;29.80;;;19.58;;
45392;SDS011;31129;44.810;10.334;2022-10-13T04:25:50;38.50;;;19.83;;
45392;SDS011;31129;44.810;10.334;2022-10-13T04:28:16;35.47;;;20.05;;
45392;SDS011;31129;44.810;10.334;2022-10-13T04:30:42;37.33;;;19.42;;
45392;SDS011;31129;44.810;10.334;2022-10-13T04:33:07;40.67;;;20.98;;
45392;SDS011;31129;44.810;10.334;2022-10-13T04:35:33;34.97;;;20.60;;
45392;SDS011;31129;44.810;10.334;2022-10-13T04:38:03;38.58;;;21.20;;
45392;SDS011;31129;44.810;10.334;2022-10-13T04:40:28;37.22;;;20.50;;
45392;SDS011;31129;44.810;10.334;2022-10-13T04:42:54;38.92;;;20.52;;
45392;SDS011;31129;44.810;10.334;2022-10-13T04:45:19;34.58;;;19.85;;
45392;SDS011;31129;44.810;10.334;2022-10-13T04:50:14;35.30;;;20.67;;
45392;SDS011;31129;44.810;10.334;2022-10-13T04:52:40;38.08;;;21.58;;
45392;SDS011;31129;44.810;10.334;2022-10-13T04:55:06;43.70;;;21.15;;
45392;SDS011;31129;44.810;10.334;2022-10-13T04:57:33;37.65;;;22.10;;
45392;SDS011;31129;44.810;10.334;2022-10-13T04:59:58;41.13;;;22.42;;
45392;SDS011;31129;44.810;10.334;2022-10-13T05:02:24;46.08;;;23.05;;
45392;SDS011;31129;44.810;10.334;2022-10-13T05:04:49;42.92;;;23.50;;
45392;SDS011;31129;44.810;10.334;2022-10-13T05:07:15;43.55;;;23.88;;
45392;SDS011;31129;44.810;10.334;2022-10-13T05:09:41;38.83;;;23.17;;
45392;SDS011;31129;44.810;10.334;2022-10-13T05:12:11;39.33;;;23.38;;
45392;SDS011;31129;44.810;10.334;2022-10-13T05:14:36;43.35;;;23.25;;
45392;SDS011;31129;44.810;10.334;2022-10-13T05:17:06;52.42;;;24.42;;
45392;SDS011;31129;44.810;10.334;2022-10-13T05:19:31;40.65;;;23.10;;
45392;SDS011;31129;44.810;10.334;2022-10-13T05:21:57;35.47;;;22.33;;
45392;SDS011;31129;44.810;10.334;2022-10-13T05:24:22;43.50;;;22.40;;
45392;SDS011;31129;44.810;10.334;2022-10-13T05:27:01;41.40;;;22.48;;
45392;SDS011;31129;44.810;10.334;2022-10-13T05:29:28;36.33;;;22.15;;
45392;SDS011;31129;44.810;10.334;2022-10-13T05:31:53;38.65;;;22.52;;
45392;SDS011;31129;44.810;10.334;2022-10-13T05:34:19;41.92;;;22.00;;
45392;SDS011;31129;44.810;10.334;2022-10-13T05:36:44;39.72;;;22.48;;
45392;SDS011;31129;44.810;10.334;2022-10-13T05:39:09;35.38;;;20.85;;
45392;SDS011;31129;44.810;10.334;2022-10-13T05:41:35;29.98;;;19.55;;
45392;SDS011;31129;44.810;10.334;2022-10-13T05:44:05;37.17;;;20.77;;
45392;SDS011;31129;44.810;10.334;2022-10-13T05:46:33;34.85;;;21.63;;
45392;SDS011;31129;44.810;10.334;2022-10-13T05:48:59;31.02;;;20.15;;
45392;SDS011;31129;44.810;10.334;2022-10-13T05:51:35;36.08;;;20.40;;
45392;SDS011;31129;44.810;10.334;2022-10-13T05:54:15;35.25;;;19.63;;
45392;SDS011;31129;44.810;10.334;2022-10-13T05:56:50;33.58;;;19.80;;
45392;SDS011;31129;44.810;10.334;2022-10-13T05:59:36;34.42;;;20.50;;
45392;SDS011;31129;44.810;10.334;2022-10-13T06:02:06;36.67;;;19.50;;
45392;SDS011;31129;44.810;10.334;2022-10-13T06:04:38;31.63;;;20.10;;
45392;SDS011;31129;44.810;10.334;2022-10-13T06:07:11;36.38;;;20.05;;
45392;SDS011;31129;44.810;10.334;2022-10-13T06:09:37;30.80;;;19.52;;
45392;SDS011;31129;44.810;10.334;2022-10-13T06:12:05;32.57;;;20.10;;
45392;SDS011;31129;44.810;10.334;2022-10-13T06:14:31;32.03;;;19.35;;
45392;SDS011;31129;44.810;10.334;2022-10-13T06:16:59;36.53;;;20.60;;
45392;SDS011;31129;44.810;10.334;2022-10-13T06:19:24;39.60;;;20.20;;
45392;SDS011;31129;44.810;10.334;2022-10-13T06:21:50;38.72;;;20.05;;
45392;SDS011;31129;44.810;10.334;2022-10-13T06:24:16;40.17;;;19.52;;
45392;SDS011;31129;44.810;10.334;2022-10-13T06:26:41;35.65;;;20.20;;
45392;SDS011;31129;44.810;10.334;2022-10-13T06:29:07;39.33;;;20.15;;
45392;SDS011;31129;44.810;10.334;2022-10-13T06:31:33;34.35;;;19.63;;
45392;SDS011;31129;44.810;10.334;2022-10-13T06:33:58;29.95;;;19.27;;
45392;SDS011;31129;44.810;10.334;2022-10-13T06:36:24;35.25;;;20.45;;
45392;SDS011;31129;44.810;10.334;2022-10-13T06:38:50;33.95;;;19.30;;
45392;SDS011;31129;44.810;10.334;2022-10-13T06:41:18;33.10;;;21.23;;
45392;SDS011;31129;44.810;10.334;2022-10-13T06:43:44;31.02;;;18.90;;
45392;SDS011;31129;44.810;10.334;2022-10-13T06:46:09;37.45;;;18.63;;
45392;SDS011;31129;44.810;10.334;2022-10-13T06:48:36;39.85;;;19.67;;
45392;SDS011;31129;44.810;10.334;2022-10-13T06:51:03;32.67;;;18.33;;
45392;SDS011;31129;44.810;10.334;2022-10-13T06:53:30;33.90;;;18.42;;
45392;SDS011;31129;44.810;10.334;2022-10-13T06:55:57;32.90;;;19.50;;
45392;SDS011;31129;44.810;10.334;2022-10-13T06:58:24;30.75;;;19.65;;
45392;SDS011;31129;44.810;10.334;2022-10-13T07:00:50;37.75;;;19.13;;
45392;SDS011;31129;44.810;10.334;2022-10-13T07:03:15;32.53;;;20.15;;
45392;SDS011;31129;44.810;10.334;2022-10-13T07:05:41;36.97;;;20.02;;
45392;SDS011;31129;44.810;10.334;2022-10-13T07:08:07;39.67;;;23.20;;
45392;SDS011;31129;44.810;10.334;2022-10-13T07:10:32;36.67;;;21.23;;
45392;SDS011;31129;44.810;10.334;2022-10-13T07:12:58;33.25;;;20.90;;
45392;SDS011;31129;44.810;10.334;2022-10-13T07:15:23;41.63;;;22.48;;
45392;SDS011;31129;44.810;10.334;2022-10-13T07:17:51;34.60;;;23.23;;
45392;SDS011;31129;44.810;10.334;2022-10-13T07:20:18;40.38;;;23.63;;
45392;SDS011;31129;44.810;10.334;2022-10-13T07:22:45;36.75;;;23.80;;
45392;SDS011;31129;44.810;10.334;2022-10-13T07:25:12;42.55;;;24.38;;
45392;SDS011;31129;44.810;10.334;2022-10-13T07:27:38;42.17;;;26.38;;
45392;SDS011;31129;44.810;10.334;2022-10-13T07:30:05;41.55;;;25.88;;
45392;SDS011;31129;44.810;10.334;2022-10-13T07:32:33;44.10;;;26.48;;
45392;SDS011;31129;44.810;10.334;2022-10-13T07:35:01;37.05;;;24.58;;
45392;SDS011;31129;44.810;10.334;2022-10-13T07:37:27;43.72;;;23.73;;
45392;SDS011;31129;44.810;10.334;2022-10-13T07:39:53;50.05;;;25.92;;
45392;SDS011;31129;44.810;10.334;2022-10-13T07:42:18;43.08;;;25.83;;
45392;SDS011;31129;44.810;10.334;2022-10-13T07:44:44;38.70;;;25.30;;
45392;SDS011;31129;44.810;10.334;2022-10-13T07:47:09;44.85;;;25.98;;
45392;SDS011;31129;44.810;10.334;2022-10-13T07:49:35;53.70;;;26.45;;
45392;SDS011;31129;44.810;10.334;2022-10-13T07:52:02;48.88;;;26.73;;
45392;SDS011;31129;44.810;10.334;2022-10-13T07:54:28;41.13;;;26.15;;
45392;SDS011;31129;44.810;10.334;2022-10-13T07:56:54;48.15;;;26.98;;
45392;SDS011;31129;44.810;10.334;2022-10-13T07:59:20;46.15;;;26.77;;
45392;SDS011;31129;44.810;10.334;2022-10-13T08:01:46;46.90;;;26.67;;
45392;SDS011;31129;44.810;10.334;2022-10-13T08:04:11;41.97;;;26.15;;
45392;SDS011;31129;44.810;10.334;2022-10-13T08:06:37;51.00;;;25.92;;
45392;SDS011;31129;44.810;10.334;2022-10-13T08:09:07;46.95;;;26.40;;
45392;SDS011;31129;44.810;10.334;2022-10-13T08:11:33;47.38;;;27.13;;
45392;SDS011;31129;44.810;10.334;2022-10-13T08:14:02;59.13;;;28.33;;
45392;SDS011;31129;44.810;10.334;2022-10-13T08:16:27;53.92;;;29.92;;
45392;SDS011;31129;44.810;10.334;2022-10-13T08:18:53;48.55;;;29.70;;
45392;SDS011;31129;44.810;10.334;2022-10-13T08:21:22;54.55;;;30.02;;
45392;SDS011;31129;44.810;10.334;2022-10-13T08:23:50;43.97;;;29.75;;
45392;SDS011;31129;44.810;10.334;2022-10-13T08:26:22;46.30;;;29.33;;
45392;SDS011;31129;44.810;10.334;2022-10-13T08:28:49;44.80;;;29.05;;
45392;SDS011;31129;44.810;10.334;2022-10-13T08:31:15;48.63;;;29.20;;
45392;SDS011;31129;44.810;10.334;2022-10-13T08:33:41;47.05;;;29.10;;
45392;SDS011;31129;44.810;10.334;2022-10-13T08:36:08;48.45;;;29.60;;
45392;SDS011;31129;44.810;10.334;2022-10-13T08:38:33;46.40;;;28.63;;
45392;SDS011;31129;44.810;10.334;2022-10-13T08:40:59;46.58;;;29.92;;
45392;SDS011;31129;44.810;10.334;2022-10-13T08:43:25;50.47;;;30.35;;
45392;SDS011;31129;44.810;10.334;2022-10-13T08:45:52;49.10;;;30.27;;
45392;SDS011;31129;44.810;10.334;2022-10-13T08:50:54;49.13;;;30.75;;
45392;SDS011;31129;44.810;10.334;2022-10-13T08:53:33;58.42;;;30.75;;
45392;SDS011;31129;44.810;10.334;2022-10-13T08:56:06;59.85;;;32.03;;
45392;SDS011;31129;44.810;10.334;2022-10-13T08:58:45;47.08;;;31.25;;
45392;SDS011;31129;44.810;10.334;2022-10-13T09:06:32;49.25;;;31.63;;
45392;SDS011;31129;44.810;10.334;2022-10-13T09:09:20;58.95;;;31.55;;
45392;SDS011;31129;44.810;10.334;2022-10-13T09:11:47;49.67;;;30.15;;
45392;SDS011;31129;44.810;10.334;2022-10-13T09:14:23;47.08;;;29.35;;
45392;SDS011;31129;44.810;10.334;2022-10-13T09:16:53;52.57;;;29.60;;
45392;SDS011;31129;44.810;10.334;2022-10-13T09:21:57;49.47;;;30.83;;
45392;SDS011;31129;44.810;10.334;2022-10-13T09:24:39;42.83;;;30.05;;
45392;SDS011;31129;44.810;10.334;2022-10-13T09:27:11;47.47;;;29.00;;
45392;SDS011;31129;44.810;10.334;2022-10-13T09:29:40;50.03;;;29.33;;
45392;SDS011;31129;44.810;10.334;2022-10-13T09:32:20;44.08;;;29.63;;
45392;SDS011;31129;44.810;10.334;2022-10-13T09:34:49;53.78;;;29.45;;
45392;SDS011;31129;44.810;10.334;2022-10-13T09:37:23;51.40;;;31.67;;
45392;SDS011;31129;44.810;10.334;2022-10-13T09:40:00;53.03;;;30.27;;
45392;SDS011;31129;44.810;10.334;2022-10-13T09:42:35;50.58;;;29.38;;
45392;SDS011;31129;44.810;10.334;2022-10-13T09:45:11;53.30;;;30.63;;
45392;SDS011;31129;44.810;10.334;2022-10-13T09:47:39;49.03;;;28.80;;
45392;SDS011;31129;44.810;10.334;2022-10-13T09:52:40;55.70;;;30.42;;
45392;SDS011;31129;44.810;10.334;2022-10-13T09:55:24;47.45;;;28.05;;
45392;SDS011;31129;44.810;10.334;2022-10-13T09:57:50;50.13;;;28.17;;
45392;SDS011;31129;44.810;10.334;2022-10-13T10:05:22;45.17;;;26.17;;
45392;SDS011;31129;44.810;10.334;2022-10-13T10:07:59;39.67;;;24.92;;
45392;SDS011;31129;44.810;10.334;2022-10-13T10:10:35;43.90;;;23.73;;
45392;SDS011;31129;44.810;10.334;2022-10-13T10:13:07;42.05;;;22.05;;
45392;SDS011;31129;44.810;10.334;2022-10-13T10:15:37;38.70;;;22.95;;
45392;SDS011;31129;44.810;10.334;2022-10-13T10:18:15;37.72;;;23.58;;
45392;SDS011;31129;44.810;10.334;2022-10-13T10:21:03;31.42;;;21.98;;
45392;SDS011;31129;44.810;10.334;2022-10-13T10:26:14;39.33;;;23.40;;
45392;SDS011;31129;44.810;10.334;2022-10-13T10:31:25;33.78;;;22.83;;
45392;SDS011;31129;44.810;10.334;2022-10-13T10:39:35;39.22;;;20.63;;
45392;SDS011;31129;44.810;10.334;2022-10-13T10:42:29;36.63;;;20.13;;
45392;SDS011;31129;44.810;10.334;2022-10-13T10:45:32;31.90;;;21.83;;
45392;SDS011;31129;44.810;10.334;2022-10-13T10:48:24;32.90;;;19.52;;
45392;SDS011;31129;44.810;10.334;2022-10-13T10:50:59;35.90;;;19.83;;
45392;SDS011;31129;44.810;10.334;2022-10-13T10:59:10;26.63;;;17.75;;
45392;SDS011;31129;44.810;10.334;2022-10-13T11:01:54;31.25;;;17.25;;
45392;SDS011;31129;44.810;10.334;2022-10-13T11:07:12;32.95;;;17.90;;
45392;SDS011;31129;44.810;10.334;2022-10-13T11:15:34;26.52;;;16.13;;
45392;SDS011;31129;44.810;10.334;2022-10-13T11:21:09;26.65;;;16.35;;
45392;SDS011;31129;44.810;10.334;2022-10-13T11:23:36;34.77;;;17.43;;
45392;SDS011;31129;44.810;10.334;2022-10-13T11:28:50;26.98;;;14.95;;
45392;SDS011;31129;44.810;10.334;2022-10-13T11:33:57;26.67;;;16.23;;
45392;SDS011;31129;44.810;10.334;2022-10-13T11:39:08;28.52;;;15.30;;
45392;SDS011;31129;44.810;10.334;2022-10-13T11:41:40;22.52;;;13.40;;
45392;SDS011;31129;44.810;10.334;2022-10-13T11:44:19;24.20;;;14.23;;
45392;SDS011;31129;44.810;10.334;2022-10-13T11:52:05;27.35;;;16.02;;
45392;SDS011;31129;44.810;10.334;2022-10-13T11:54:48;18.55;;;13.52;;
45392;SDS011;31129;44.810;10.334;2022-10-13T11:57:20;24.67;;;13.80;;
45392;SDS011;31129;44.810;10.334;2022-10-13T11:59:48;22.30;;;13.98;;
45392;SDS011;31129;44.810;10.334;2022-10-13T12:02:24;31.33;;;16.60;;
45392;SDS011;31129;44.810;10.334;2022-10-13T12:05:04;27.52;;;17.02;;
45392;SDS011;31129;44.810;10.334;2022-10-13T12:07:44;24.40;;;15.70;;
45392;SDS011;31129;44.810;10.334;2022-10-13T12:10:28;29.50;;;15.00;;
45392;SDS011;31129;44.810;10.334;2022-10-13T12:12:56;26.50;;;15.93;;
45392;SDS011;31129;44.810;10.334;2022-10-13T12:15:37;27.95;;;15.98;;
45392;SDS011;31129;44.810;10.334;2022-10-13T12:18:22;21.45;;;15.40;;
45392;SDS011;31129;44.810;10.334;2022-10-13T12:20:55;29.75;;;16.70;;
45392;SDS011;31129;44.810;10.334;2022-10-13T12:23:22;25.42;;;16.23;;
45392;SDS011;31129;44.810;10.334;2022-10-13T12:25:49;29.45;;;15.65;;
45392;SDS011;31129;44.810;10.334;2022-10-13T12:28:21;27.63;;;12.90;;
45392;SDS011;31129;44.810;10.334;2022-10-13T12:30:52;22.45;;;14.05;;
45392;SDS011;31129;44.810;10.334;2022-10-13T12:33:27;23.77;;;13.50;;
45392;SDS011;31129;44.810;10.334;2022-10-13T12:36:10;30.60;;;14.20;;
45392;SDS011;31129;44.810;10.334;2022-10-13T12:41:25;20.33;;;12.73;;
45392;SDS011;31129;44.810;10.334;2022-10-13T12:43:53;26.23;;;14.18;;
45392;SDS011;31129;44.810;10.334;2022-10-13T12:49:15;24.60;;;12.18;;
45392;SDS011;31129;44.810;10.334;2022-10-13T12:51:43;21.92;;;12.30;;
45392;SDS011;31129;44.810;10.334;2022-10-13T12:54:17;23.17;;;12.05;;
45392;SDS011;31129;44.810;10.334;2022-10-13T12:56:44;20.25;;;12.77;;
45392;SDS011;31129;44.810;10.334;2022-10-13T12:59:17;33.92;;;14.55;;
45392;SDS011;31129;44.810;10.334;2022-10-13T13:02:16;21.73;;;12.73;;
45392;SDS011;31129;44.810;10.334;2022-10-13T13:04:51;24.98;;;13.60;;
45392;SDS011;31129;44.810;10.334;2022-10-13T13:07:23;26.98;;;12.63;;
45392;SDS011;31129;44.810;10.334;2022-10-13T13:10:27;24.52;;;13.88;;
45392;SDS011;31129;44.810;10.334;2022-10-13T13:12:49;28.48;;;12.05;;
45392;SDS011;31129;44.810;10.334;2022-10-13T13:15:37;23.43;;;10.80;;
45392;SDS011;31129;44.810;10.334;2022-10-13T13:20:49;24.75;;;13.45;;
45392;SDS011;31129;44.810;10.334;2022-10-13T13:23:14;22.50;;;11.75;;
45392;SDS011;31129;44.810;10.334;2022-10-13T13:25:43;23.00;;;12.05;;
45392;SDS011;31129;44.810;10.334;2022-10-13T13:28:09;27.02;;;11.93;;
45392;SDS011;31129;44.810;10.334;2022-10-13T13:30:37;18.85;;;11.38;;
45392;SDS011;31129;44.810;10.334;2022-10-13T13:33:02;26.10;;;10.60;;
45392;SDS011;31129;44.810;10.334;2022-10-13T13:35:28;19.55;;;9.48;;
45392;SDS011;31129;44.810;10.334;2022-10-13T13:37:55;17.60;;;9.07;;
45392;SDS011;31129;44.810;10.334;2022-10-13T13:40:24;22.23;;;10.77;;
45392;SDS011;31129;44.810;10.334;2022-10-13T13:42:51;20.00;;;10.55;;
45392;SDS011;31129;44.810;10.334;2022-10-13T13:45:21;19.90;;;10.40;;
45392;SDS011;31129;44.810;10.334;2022-10-13T13:47:50;18.33;;;10.25;;
45392;SDS011;31129;44.810;10.334;2022-10-13T13:50:17;21.60;;;11.68;;
45392;SDS011;31129;44.810;10.334;2022-10-13T13:52:54;19.13;;;10.15;;
45392;SDS011;31129;44.810;10.334;2022-10-13T13:55:20;18.58;;;11.98;;
45392;SDS011;31129;44.810;10.334;2022-10-13T13:57:47;23.80;;;11.90;;
45392;SDS011;31129;44.810;10.334;2022-10-13T14:00:13;18.33;;;11.65;;
45392;SDS011;31129;44.810;10.334;2022-10-13T14:02:40;23.92;;;10.52;;
45392;SDS011;31129;44.810;10.334;2022-10-13T14:05:07;18.08;;;10.35;;
45392;SDS011;31129;44.810;10.334;2022-10-13T14:07:33;19.30;;;10.75;;
45392;SDS011;31129;44.810;10.334;2022-10-13T14:09:59;18.08;;;10.80;;
45392;SDS011;31129;44.810;10.334;2022-10-13T14:12:24;25.38;;;11.35;;
45392;SDS011;31129;44.810;10.334;2022-10-13T14:14:50;23.67;;;12.13;;
45392;SDS011;31129;44.810;10.334;2022-10-13T14:19:43;25.55;;;10.18;;
45392;SDS011;31129;44.810;10.334;2022-10-13T14:22:08;17.10;;;9.23;;
45392;SDS011;31129;44.810;10.334;2022-10-13T14:24:34;22.10;;;12.30;;
45392;SDS011;31129;44.810;10.334;2022-10-13T14:27:00;22.08;;;12.10;;
45392;SDS011;31129;44.810;10.334;2022-10-13T14:29:25;19.20;;;10.32;;
45392;SDS011;31129;44.810;10.334;2022-10-13T14:31:51;22.63;;;10.73;;
45392;SDS011;31129;44.810;10.334;2022-10-13T14:34:16;19.23;;;10.18;;
45392;SDS011;31129;44.810;10.334;2022-10-13T14:36:43;23.55;;;10.55;;
45392;SDS011;31129;44.810;10.334;2022-10-13T14:39:08;19.00;;;9.68;;
45392;SDS011;31129;44.810;10.334;2022-10-13T14:41:34;23.80;;;9.75;;
45392;SDS011;31129;44.810;10.334;2022-10-13T14:43:59;20.30;;;11.00;;
45392;SDS011;31129;44.810;10.334;2022-10-13T14:46:25;16.77;;;10.73;;
45392;SDS011;31129;44.810;10.334;2022-10-13T14:48:50;17.58;;;11.05;;
45392;SDS011;31129;44.810;10.334;2022-10-13T14:51:16;20.35;;;11.20;;
45392;SDS011;31129;44.810;10.334;2022-10-13T14:53:43;21.95;;;12.02;;
45392;SDS011;31129;44.810;10.334;2022-10-13T14:56:17;27.13;;;11.55;;
45392;SDS011;31129;44.810;10.334;2022-10-13T14:58:50;18.23;;;9.93;;
45392;SDS011;31129;44.810;10.334;2022-10-13T15:01:22;24.77;;;11.32;;
45392;SDS011;31129;44.810;10.334;2022-10-13T15:03:48;26.40;;;10.65;;
45392;SDS011;31129;44.810;10.334;2022-10-13T15:06:15;21.80;;;11.75;;
45392;SDS011;31129;44.810;10.334;2022-10-13T15:08:45;26.00;;;13.18;;
45392;SDS011;31129;44.810;10.334;2022-10-13T15:11:11;20.38;;;13.13;;
45392;SDS011;31129;44.810;10.334;2022-10-13T15:13:38;23.02;;;12.52;;
45392;SDS011;31129;44.810;10.334;2022-10-13T15:16:07;26.17;;;12.57;;
45392;SDS011;31129;44.810;10.334;2022-10-13T15:18:39;19.05;;;10.57;;
45392;SDS011;31129;44.810;10.334;2022-10-13T15:21:05;17.63;;;11.10;;
45392;SDS011;31129;44.810;10.334;2022-10-13T15:23:31;26.05;;;11.70;;
45392;SDS011;31129;44.810;10.334;2022-10-13T15:25:57;23.10;;;11.40;;
45392;SDS011;31129;44.810;10.334;2022-10-13T15:28:25;23.65;;;11.10;;
45392;SDS011;31129;44.810;10.334;2022-10-13T15:30:58;20.08;;;10.90;;
45392;SDS011;31129;44.810;10.334;2022-10-13T15:33:24;21.33;;;12.57;;
45392;SDS011;31129;44.810;10.334;2022-10-13T15:35:50;24.15;;;12.75;;
45392;SDS011;31129;44.810;10.334;2022-10-13T15:38:16;20.35;;;11.75;;
45392;SDS011;31129;44.810;10.334;2022-10-13T15:40:43;21.27;;;10.87;;
45392;SDS011;31129;44.810;10.334;2022-10-13T15:43:09;28.40;;;11.30;;
45392;SDS011;31129;44.810;10.334;2022-10-13T15:45:34;19.73;;;9.98;;
45392;SDS011;31129;44.810;10.334;2022-10-13T15:48:00;18.08;;;10.30;;
45392;SDS011;31129;44.810;10.334;2022-10-13T15:50:27;19.88;;;9.38;;
45392;SDS011;31129;44.810;10.334;2022-10-13T15:52:53;21.17;;;9.80;;
45392;SDS011;31129;44.810;10.334;2022-10-13T15:55:18;25.70;;;11.25;;